Terminal Aerodrome Forecast
Issued by NWS Burlington, VT

Home | Current Version | Previous Version | Text Only | Print | Product List | Glossary On
Versions: 1 2 3 4 5 6 7 8 9 10 11 12 13 14
000
FTUS41 KBTV 232300
TAFBTV
TAF
KBTV 232320Z 2400/2424 33014G24KT P6SM OVC045
     FM240200 33014KT P6SM OVC040
     FM241400 33020G30KT P6SM SCT050=

USA.gov is the U.S. government's official web portal to all federal, state and local government web resources and services.